createdAt,value
2017-09-07T00:00:53.464Z,97280.85
2017-09-07T00:03:20.893Z,97276.87
2017-09-07T00:05:48.357Z,97278.75
2017-09-07T00:08:15.991Z,97279.73
2017-09-07T00:10:43.456Z,97271.08
2017-09-07T00:13:10.886Z,97270.66
2017-09-07T00:15:38.311Z,97268.34
2017-09-07T00:18:05.751Z,97263.38
2017-09-07T00:20:33.187Z,97256.95
2017-09-07T00:23:00.634Z,97266.84
2017-09-07T00:25:28.075Z,97259.69
2017-09-07T00:27:55.511Z,97269.28
2017-09-07T00:30:22.955Z,97261.19
2017-09-07T00:32:50.593Z,97253.78
2017-09-07T00:35:18.026Z,97244.19
2017-09-07T00:37:45.462Z,97248.30
2017-09-07T00:40:12.929Z,97250.74
2017-09-07T00:42:40.454Z,97250.65
2017-09-07T00:45:08.354Z,97246.62
2017-09-07T00:47:35.820Z,97241.27
2017-09-07T00:50:03.276Z,97239.90
2017-09-07T00:52:30.716Z,97236.22
2017-09-07T00:54:58.152Z,97231.55
2017-09-07T00:57:25.585Z,97236.22
2017-09-07T00:59:53.026Z,97240.33
2017-09-07T01:02:20.489Z,97235.36
2017-09-07T01:04:47.954Z,97237.68
2017-09-07T01:07:16.004Z,97230.00
2017-09-07T01:09:43.763Z,97239.17
2017-09-07T01:12:11.185Z,97231.38
2017-09-07T01:14:38.627Z,97226.84
2017-09-07T01:17:06.091Z,97225.98
2017-09-07T01:19:33.528Z,97224.62
2017-09-07T01:22:00.967Z,97216.81
2017-09-07T01:24:28.439Z,97220.51
2017-09-07T01:26:55.878Z,97215.15
2017-09-07T01:29:23.317Z,97224.75
2017-09-07T01:31:50.774Z,97221.58
2017-09-07T01:34:18.406Z,97212.41
2017-09-07T01:36:45.949Z,97219.39
2017-09-07T01:39:13.516Z,97215.67
2017-09-07T01:41:41.033Z,97212.53
2017-09-07T01:44:08.530Z,97209.80
2017-09-07T01:46:35.996Z,97211.69
2017-09-07T01:49:03.428Z,97208.42
2017-09-07T01:51:30.865Z,97203.88
2017-09-07T01:53:58.310Z,97208.00
2017-09-07T01:56:25.738Z,97200.72
2017-09-07T01:58:53.165Z,97201.66
2017-09-07T02:01:20.605Z,97201.23
2017-09-07T02:03:48.151Z,97197.68
2017-09-07T02:06:15.635Z,97189.98
2017-09-07T02:08:43.095Z,97186.80
2017-09-07T02:11:10.521Z,97189.55
2017-09-07T02:13:37.947Z,97186.80
2017-09-07T02:16:05.643Z,97184.06
2017-09-07T02:18:33.127Z,97181.87
2017-09-07T02:21:00.555Z,97181.02
2017-09-07T02:23:27.995Z,97175.97
2017-09-07T02:25:55.534Z,97173.78
2017-09-07T02:28:23.443Z,97170.19
2017-09-07T02:30:50.950Z,97166.37
2017-09-07T02:33:18.392Z,97169.67
2017-09-07T02:35:45.842Z,97168.30
2017-09-07T02:38:14.971Z,97171.14
2017-09-07T02:40:42.398Z,97166.50
2017-09-07T02:43:09.868Z,97167.02
2017-09-07T02:45:37.316Z,97159.66
2017-09-07T02:48:05.571Z,97161.12
2017-09-07T02:50:33.018Z,97158.37
2017-09-07T02:53:00.465Z,97155.63
2017-09-07T02:55:27.972Z,97156.61
2017-09-07T02:57:55.594Z,97156.61
2017-09-07T03:00:23.164Z,97156.19
2017-09-07T03:02:50.589Z,97154.81
2017-09-07T03:05:18.131Z,97155.24
2017-09-07T03:07:45.575Z,97149.85
2017-09-07T03:10:13.023Z,97148.61
2017-09-07T03:12:40.462Z,97148.48
2017-09-07T03:15:07.931Z,97142.06
2017-09-07T03:17:35.375Z,97148.48
2017-09-07T03:20:02.819Z,97144.92
2017-09-07T03:22:30.262Z,97141.20
2017-09-07T03:24:57.718Z,97137.52
2017-09-07T03:27:25.156Z,97128.88
2017-09-07T03:29:52.646Z,97133.41
2017-09-07T03:32:20.105Z,97126.13
2017-09-07T03:34:47.533Z,97129.30
2017-09-07T03:37:14.962Z,97120.78
2017-09-07T03:39:42.435Z,97126.26
2017-09-07T03:42:09.874Z,97120.91
2017-09-07T03:44:37.414Z,97120.35
2017-09-07T03:47:04.855Z,97116.24
2017-09-07T03:49:32.284Z,97121.72
2017-09-07T03:51:59.784Z,97114.70
2017-09-07T03:54:27.444Z,97113.20
2017-09-07T03:56:54.876Z,97108.27
2017-09-07T03:59:22.329Z,97107.00
2017-09-07T04:01:49.773Z,97107.72
2017-09-07T04:04:17.195Z,97102.37
2017-09-07T04:06:45.196Z,97102.37
2017-09-07T04:09:12.727Z,97104.26
2017-09-07T04:11:40.165Z,97099.20
2017-09-07T04:14:07.619Z,97093.72
2017-09-07T04:16:35.179Z,97095.94
2017-09-07T04:19:02.608Z,97096.98
2017-09-07T04:21:30.082Z,97094.37
2017-09-07T04:23:57.523Z,97095.61
2017-09-07T04:26:25.010Z,97089.19
2017-09-07T04:28:52.474Z,97096.89
2017-09-07T04:31:19.933Z,97087.39
2017-09-07T04:33:47.370Z,97097.95
2017-09-07T04:36:14.814Z,97094.37
2017-09-07T04:38:42.253Z,97096.46
2017-09-07T04:41:09.688Z,97105.28
2017-09-07T04:43:37.146Z,97098.25
2017-09-07T04:46:05.537Z,97108.45
2017-09-07T04:48:32.964Z,97098.20
2017-09-07T04:51:01.196Z,97097.56
2017-09-07T04:53:28.631Z,97101.15
2017-09-07T04:55:56.081Z,97088.56
2017-09-07T04:58:23.543Z,97089.94
2017-09-07T05:00:51.019Z,97091.13
2017-09-07T05:03:18.458Z,97095.41
2017-09-07T05:05:45.937Z,97095.84
2017-09-07T05:08:13.373Z,97095.24
2017-09-07T05:10:40.817Z,97100.25
2017-09-07T05:13:08.268Z,97097.28
2017-09-07T05:15:35.701Z,97094.67
2017-09-07T05:18:03.135Z,97095.32
2017-09-07T05:20:30.590Z,97096.14
2017-09-07T05:22:58.122Z,97106.03
2017-09-07T05:25:25.588Z,97103.62
2017-09-07T05:27:53.050Z,97101.92
2017-09-07T05:30:20.482Z,97110.05
2017-09-07T05:32:47.926Z,97111.41
2017-09-07T05:35:15.388Z,97110.05
2017-09-07T05:37:42.824Z,97112.78
2017-09-07T05:40:10.264Z,97118.79
2017-09-07T05:42:37.736Z,97112.23
2017-09-07T05:45:05.187Z,97111.12
2017-09-07T05:47:32.657Z,97110.05
2017-09-07T05:50:00.102Z,97115.83
2017-09-07T05:52:27.545Z,97102.55
2017-09-07T05:54:54.982Z,97111.29
2017-09-07T05:57:22.432Z,97112.53
2017-09-07T05:59:49.911Z,97114.75
2017-09-07T06:02:17.385Z,97111.29
2017-09-07T06:04:44.842Z,97109.10
2017-09-07T06:07:12.283Z,97113.66
2017-09-07T06:09:39.895Z,97109.20
2017-09-07T06:12:07.408Z,97108.89
2017-09-07T06:14:34.852Z,97112.16
2017-09-07T06:17:02.319Z,97121.73
2017-09-07T06:19:29.788Z,97117.72
2017-09-07T06:21:57.218Z,97114.67
2017-09-07T06:24:24.656Z,97114.16
2017-09-07T06:26:52.096Z,97117.72
2017-09-07T06:29:19.538Z,97113.52
2017-09-07T06:31:46.993Z,97113.52
2017-09-07T06:34:14.458Z,97105.68
2017-09-07T06:36:42.465Z,97112.86
2017-09-07T06:39:09.906Z,97112.95
2017-09-07T06:41:37.358Z,97108.55
2017-09-07T06:44:05.717Z,97117.33
2017-09-07T06:46:33.140Z,97104.86
2017-09-07T06:49:00.591Z,97111.41
2017-09-07T06:51:28.029Z,97111.52
2017-09-07T06:53:55.475Z,97110.69
2017-09-07T06:56:22.921Z,97109.20
2017-09-07T06:58:50.367Z,97113.08
2017-09-07T07:01:17.913Z,97110.77
2017-09-07T07:03:45.382Z,97105.16
2017-09-07T07:06:12.823Z,97108.75
2017-09-07T07:08:40.282Z,97112.95
2017-09-07T07:11:07.736Z,97111.59
2017-09-07T07:13:35.173Z,97113.59
2017-09-07T07:16:02.599Z,97104.09
2017-09-07T07:18:30.040Z,97110.94
2017-09-07T07:20:57.478Z,97110.13
2017-09-07T07:23:26.112Z,97106.31
2017-09-07T07:25:53.556Z,97106.73
2017-09-07T07:28:20.999Z,97109.70
2017-09-07T07:30:48.443Z,97107.67
2017-09-07T07:33:15.898Z,97106.73
2017-09-07T07:35:43.349Z,97105.36
2017-09-07T07:38:10.793Z,97107.55
2017-09-07T07:40:38.258Z,97112.31
2017-09-07T07:43:05.720Z,97113.98
2017-09-07T07:45:33.195Z,97119.07
2017-09-07T07:48:01.212Z,97105.23
2017-09-07T07:50:28.670Z,97108.27
2017-09-07T07:52:56.124Z,97117.57
2017-09-07T07:55:23.578Z,97111.53
2017-09-07T07:57:51.021Z,97111.53
2017-09-07T08:00:18.457Z,97115.98
2017-09-07T08:02:45.897Z,97113.23
2017-09-07T08:05:13.374Z,97117.88
2017-09-07T08:07:40.935Z,97120.09
2017-09-07T08:10:08.387Z,97124.08
2017-09-07T08:12:35.837Z,97124.72
2017-09-07T08:15:03.286Z,97112.81
2017-09-07T08:17:30.750Z,97118.59
2017-09-07T08:19:58.194Z,97123.95
2017-09-07T08:22:25.633Z,97120.09
2017-09-07T08:24:53.092Z,97121.85
2017-09-07T08:27:20.529Z,97125.02
2017-09-07T08:29:48.104Z,97125.88
2017-09-07T08:32:15.550Z,97120.81
2017-09-07T08:34:42.986Z,97122.70
2017-09-07T08:37:10.420Z,97125.02
2017-09-07T08:39:37.868Z,97122.19
2017-09-07T08:42:05.368Z,97117.65
2017-09-07T08:44:32.891Z,97118.07
2017-09-07T08:47:00.348Z,97123.95
2017-09-07T08:49:27.921Z,97112.98
2017-09-07T08:51:55.540Z,97116.09
2017-09-07T08:54:23.002Z,97115.20
2017-09-07T08:56:50.437Z,97121.63
2017-09-07T08:59:17.883Z,97128.06
2017-09-07T09:01:45.337Z,97124.50
2017-09-07T09:04:12.790Z,97122.48
2017-09-07T09:06:40.264Z,97131.56
2017-09-07T09:09:07.725Z,97120.20
2017-09-07T09:11:35.155Z,97121.57
2017-09-07T09:14:02.592Z,97121.44
2017-09-07T09:16:30.047Z,97122.48
2017-09-07T09:18:57.510Z,97125.69
2017-09-07T09:21:24.945Z,97113.41
2017-09-07T09:23:52.391Z,97114.72
2017-09-07T09:26:19.828Z,97107.50
2017-09-07T09:28:47.270Z,97112.98
2017-09-07T09:31:14.738Z,97110.37
2017-09-07T09:33:42.173Z,97111.73
2017-09-07T09:39:40.306Z,97112.39
2017-09-07T09:42:07.727Z,97104.76
2017-09-07T09:44:35.160Z,97101.42
2017-09-07T09:47:02.604Z,97102.67
2017-09-07T09:49:30.047Z,97101.42
2017-09-07T09:51:57.494Z,97102.49
2017-09-07T09:54:24.960Z,97101.42
2017-09-07T09:56:52.417Z,97103.22
2017-09-07T09:59:19.853Z,97101.55
2017-09-07T10:01:47.309Z,97105.53
2017-09-07T10:04:14.740Z,97102.27
2017-09-07T10:06:42.183Z,97101.72
2017-09-07T10:09:09.633Z,97105.96
2017-09-07T10:11:37.061Z,97102.14
2017-09-07T10:14:05.254Z,97105.83
2017-09-07T10:16:32.723Z,97106.78
2017-09-07T10:19:00.157Z,97102.27
2017-09-07T10:21:27.594Z,97099.53
2017-09-07T10:23:55.077Z,97094.86
2017-09-07T10:26:22.549Z,97096.36
2017-09-07T10:30:17.085Z,97095.09
2017-09-07T10:32:44.509Z,97102.37
2017-09-07T10:35:12.313Z,97096.06
2017-09-07T10:37:39.823Z,97094.86
2017-09-07T10:40:07.281Z,97093.72
2017-09-07T10:42:34.746Z,97090.16
2017-09-07T10:45:02.209Z,97094.92
2017-09-07T10:47:29.654Z,97094.70
2017-09-07T10:49:57.109Z,97090.03
2017-09-07T10:52:24.547Z,97092.77
2017-09-07T10:54:51.999Z,97086.77
2017-09-07T10:57:19.437Z,97088.44
2017-09-07T10:59:46.873Z,97086.12
2017-09-07T11:02:14.358Z,97080.52
2017-09-07T11:04:41.801Z,97084.20
2017-09-07T11:07:09.322Z,97079.36
2017-09-07T11:09:36.766Z,97071.70
2017-09-07T11:12:04.206Z,97060.66
2017-09-07T11:14:31.657Z,97061.50
2017-09-07T11:16:59.088Z,97058.94
2017-09-07T11:19:26.520Z,97058.94
2017-09-07T11:21:53.993Z,97055.67
2017-09-07T11:24:21.526Z,97050.06
2017-09-07T11:26:48.953Z,97054.30
2017-09-07T11:29:16.388Z,97055.34
2017-09-07T11:31:43.850Z,97054.17
2017-09-07T11:34:11.290Z,97051.86
2017-09-07T11:36:38.723Z,97051.53
2017-09-07T11:39:06.153Z,97052.36
2017-09-07T11:41:33.596Z,97044.98
2017-09-07T11:44:01.035Z,97048.14
2017-09-07T11:46:28.465Z,97043.09
2017-09-07T11:48:55.905Z,97043.61
2017-09-07T11:51:23.349Z,97044.46
2017-09-07T11:53:50.781Z,97040.73
2017-09-07T11:56:18.224Z,97042.11
2017-09-07T11:58:45.651Z,97038.42
2017-09-07T12:01:13.081Z,97033.37
2017-09-07T12:03:40.539Z,97029.25
2017-09-07T12:06:08.038Z,97027.46
2017-09-07T12:08:35.473Z,97029.55
2017-09-07T12:11:02.902Z,97029.55
2017-09-07T12:13:30.347Z,97023.64
2017-09-07T12:15:57.787Z,97023.13
2017-09-07T12:18:25.234Z,97022.27
2017-09-07T12:20:52.688Z,97014.60
2017-09-07T12:23:20.132Z,97013.82
2017-09-07T12:25:47.565Z,97008.77
2017-09-07T12:28:15.034Z,97003.70
2017-09-07T12:30:43.164Z,97004.66
2017-09-07T12:33:10.645Z,97003.28
2017-09-07T12:35:38.118Z,97005.17
2017-09-07T12:38:05.573Z,96995.48
2017-09-07T12:40:32.993Z,96992.73
2017-09-07T12:43:00.458Z,96986.70
2017-09-07T12:45:27.890Z,96982.23
2017-09-07T12:47:55.333Z,96979.20
2017-09-07T12:50:22.775Z,96981.13
2017-09-07T12:52:50.207Z,96982.59
2017-09-07T12:55:17.640Z,96977.66
2017-09-07T12:57:45.111Z,96974.20
2017-09-07T13:00:12.597Z,96975.14
2017-09-07T13:02:40.048Z,96971.88
2017-09-07T13:05:07.527Z,96966.63
2017-09-07T13:07:34.942Z,96963.88
2017-09-07T13:10:02.391Z,96968.81
2017-09-07T13:12:30.492Z,96975.80
2017-09-07T13:14:57.942Z,96971.16
2017-09-07T13:17:25.389Z,96974.30
2017-09-07T13:19:52.831Z,96972.83
2017-09-07T13:22:20.282Z,96968.16
2017-09-07T13:24:47.729Z,96964.61
2017-09-07T13:27:15.256Z,96963.83
2017-09-07T13:29:42.889Z,96965.48
2017-09-07T13:32:10.613Z,96959.58
2017-09-07T13:34:42.521Z,96956.32
2017-09-07T13:37:09.974Z,96955.38
2017-09-07T13:39:37.425Z,96962.09
2017-09-07T13:42:05.749Z,96954.81
2017-09-07T13:44:33.201Z,96954.72
2017-09-07T13:47:00.652Z,96947.45
2017-09-07T13:49:28.095Z,96947.87
2017-09-07T13:51:55.730Z,96943.46
2017-09-07T13:54:23.160Z,96948.39
2017-09-07T13:56:50.663Z,96943.63
2017-09-07T13:59:18.284Z,96937.33
2017-09-07T14:01:45.743Z,96941.02
2017-09-07T14:04:13.212Z,96939.73
2017-09-07T14:06:40.704Z,96933.61
2017-09-07T14:09:08.152Z,96933.08
2017-09-07T14:11:35.616Z,96926.75
2017-09-07T14:14:03.067Z,96927.17
2017-09-07T14:16:31.213Z,96925.09
2017-09-07T14:18:58.671Z,96914.84
2017-09-07T14:21:26.112Z,96913.17
2017-09-07T14:23:53.551Z,96913.59
2017-09-07T14:26:20.989Z,96909.48
2017-09-07T14:28:48.449Z,96909.29
2017-09-07T14:31:16.094Z,96906.45
2017-09-07T14:33:43.596Z,96904.95
2017-09-07T14:36:11.067Z,96897.57
2017-09-07T14:38:38.513Z,96891.66
2017-09-07T14:41:05.948Z,96894.92
2017-09-07T14:43:33.391Z,96891.77
2017-09-07T14:46:00.901Z,96886.41
2017-09-07T14:48:28.317Z,96886.28
2017-09-07T14:50:55.866Z,96886.19
2017-09-07T14:53:23.360Z,96884.81
2017-09-07T14:55:50.794Z,96884.55
2017-09-07T14:58:18.655Z,96883.73
2017-09-07T15:00:46.096Z,96873.29
2017-09-07T15:03:13.575Z,96875.51
2017-09-07T15:05:41.043Z,96871.27
2017-09-07T15:08:08.482Z,96873.58
2017-09-07T15:10:36.267Z,96871.56
2017-09-07T15:13:03.710Z,96869.24
2017-09-07T15:15:31.196Z,96864.84
2017-09-07T15:17:58.649Z,96865.78
2017-09-07T15:20:26.082Z,96868.00
2017-09-07T15:22:53.537Z,96872.54
2017-09-07T15:25:20.998Z,96867.58
2017-09-07T15:27:48.757Z,96864.19
2017-09-07T15:30:16.189Z,96866.41
2017-09-07T15:32:43.652Z,96863.23
2017-09-07T15:35:11.548Z,96861.86
2017-09-07T15:37:39.226Z,96863.76
2017-09-07T15:40:06.781Z,96862.29
2017-09-07T15:42:34.273Z,96856.38
2017-09-07T15:45:02.493Z,96859.84
2017-09-07T15:47:29.953Z,96864.61
2017-09-07T15:49:57.419Z,96856.91
2017-09-07T15:52:24.880Z,96858.41
2017-09-07T15:54:52.308Z,96860.85
2017-09-07T15:57:19.759Z,96864.19
2017-09-07T15:59:47.386Z,96860.92
2017-09-07T16:02:15.467Z,96861.25
2017-09-07T16:04:42.920Z,96858.50
2017-09-07T16:07:10.453Z,96858.21
2017-09-07T16:09:38.001Z,96853.70
2017-09-07T16:12:05.487Z,96858.99
2017-09-07T16:14:33.085Z,96856.97
2017-09-07T16:17:00.567Z,96863.59
2017-09-07T16:19:28.096Z,96862.94
2017-09-07T16:21:55.622Z,96866.50
2017-09-07T16:24:23.072Z,96863.36
2017-09-07T16:26:50.504Z,96867.48
2017-09-07T16:29:18.006Z,96862.52
2017-09-07T16:31:45.459Z,96866.04
2017-09-07T16:34:12.894Z,96865.91
2017-09-07T16:36:40.338Z,96861.67
2017-09-07T16:39:07.872Z,96861.14
2017-09-07T16:41:35.381Z,96863.89
2017-09-07T16:44:02.816Z,96860.20
2017-09-07T16:46:30.297Z,96864.73
2017-09-07T16:48:57.729Z,96862.28
2017-09-07T16:51:25.158Z,96862.28
2017-09-07T16:53:52.764Z,96865.03
2017-09-07T16:56:20.215Z,96869.44
2017-09-07T16:58:47.676Z,96869.44
2017-09-07T17:01:15.157Z,96867.93
2017-09-07T17:03:42.595Z,96870.25
2017-09-07T17:06:10.026Z,96870.25
2017-09-07T17:08:37.497Z,96870.67
2017-09-07T17:11:04.936Z,96873.70
2017-09-07T17:13:32.382Z,96873.70
2017-09-07T17:15:59.850Z,96869.59
2017-09-07T17:18:27.304Z,96870.02
2017-09-07T17:20:54.746Z,96865.38
2017-09-07T17:23:22.204Z,96865.91
2017-09-07T17:25:49.644Z,96875.64
2017-09-07T17:28:17.092Z,96874.69
2017-09-07T17:30:44.556Z,96873.70
2017-09-07T17:33:12.005Z,96879.09
2017-09-07T17:35:39.445Z,96875.80
2017-09-07T17:38:06.905Z,96871.39
2017-09-07T17:40:35.030Z,96867.41
2017-09-07T17:43:02.469Z,96869.30
2017-09-07T17:45:29.948Z,96869.30
2017-09-07T17:47:57.387Z,96876.06
2017-09-07T17:50:24.821Z,96883.02
2017-09-07T17:52:52.274Z,96886.54
2017-09-07T17:55:19.714Z,96893.88
2017-09-07T17:57:47.222Z,96893.03
2017-09-07T18:00:14.758Z,96893.98
2017-09-07T18:02:42.255Z,96893.75
2017-09-07T18:05:09.705Z,96895.12
2017-09-07T18:07:37.199Z,96893.33
2017-09-07T18:10:05.470Z,96896.20
2017-09-07T18:12:32.972Z,96896.73
2017-09-07T18:15:01.181Z,96900.31
2017-09-07T18:17:28.640Z,96905.90
2017-09-07T18:19:56.101Z,96903.71
2017-09-07T18:22:23.658Z,96907.83
2017-09-07T18:24:51.126Z,96911.94
2017-09-07T18:27:18.553Z,96905.08
2017-09-07T18:29:46.082Z,96914.68
2017-09-07T18:32:13.532Z,96917.42
2017-09-07T18:34:40.979Z,96923.85
2017-09-07T18:37:08.436Z,96920.69
2017-09-07T18:39:35.874Z,96925.22
2017-09-07T18:42:03.341Z,96923.27
2017-09-07T18:44:30.875Z,96927.90
2017-09-07T18:46:58.404Z,96922.13
2017-09-07T18:49:25.837Z,96929.63
2017-09-07T18:51:53.427Z,96928.13
2017-09-07T18:54:20.952Z,96927.18
2017-09-07T18:56:48.391Z,96932.38
2017-09-07T18:59:15.932Z,96924.80
2017-09-07T19:01:43.366Z,96930.93
2017-09-07T19:04:10.832Z,96932.43
2017-09-07T19:06:38.339Z,96931.88
2017-09-07T19:09:05.796Z,96931.36
2017-09-07T19:11:33.316Z,96923.66
2017-09-07T19:14:00.804Z,96926.16
2017-09-07T19:16:28.247Z,96934.69
2017-09-07T19:18:55.695Z,96933.22
2017-09-07T19:21:23.132Z,96935.41
2017-09-07T19:23:50.624Z,96936.91
2017-09-07T19:26:18.112Z,96938.80
2017-09-07T19:28:45.564Z,96934.16
2017-09-07T19:31:13.081Z,96940.08
2017-09-07T19:33:40.527Z,96947.32
2017-09-07T19:36:07.990Z,96949.77
2017-09-07T19:38:35.568Z,96954.44
2017-09-07T19:41:03.010Z,96957.89
2017-09-07T19:43:30.466Z,96955.67
2017-09-07T19:45:57.987Z,96953.45
2017-09-07T19:48:26.304Z,96960.44
2017-09-07T19:50:53.780Z,96964.98
2017-09-07T19:53:21.234Z,96963.73
2017-09-07T19:55:48.745Z,96971.05
2017-09-07T19:58:16.314Z,96963.31
2017-09-07T20:00:43.838Z,96972.78
2017-09-07T20:03:11.274Z,96968.96
2017-09-07T20:05:38.714Z,96968.44
2017-09-07T20:08:06.169Z,96970.88
2017-09-07T20:10:33.600Z,96973.20
2017-09-07T20:13:01.088Z,96977.61
2017-09-07T20:15:28.590Z,96976.11
2017-09-07T20:17:56.203Z,96972.42
2017-09-07T20:20:23.677Z,96969.16
2017-09-07T20:22:51.134Z,96967.23
2017-09-07T20:25:18.686Z,96961.36
2017-09-07T20:27:46.115Z,96970.95
2017-09-07T20:30:13.565Z,96968.44
2017-09-07T20:32:40.999Z,96971.28
2017-09-07T20:35:08.503Z,96971.24
2017-09-07T20:37:35.948Z,96966.64
2017-09-07T20:40:03.405Z,96968.86
2017-09-07T20:42:30.879Z,96967.59
2017-09-07T20:44:58.309Z,96964.78
2017-09-07T20:47:25.749Z,96961.29
2017-09-07T20:49:53.266Z,96961.58
2017-09-07T20:52:20.728Z,96959.27
2017-09-07T20:54:48.160Z,96954.73
2017-09-07T20:57:15.718Z,96955.02
2017-09-07T20:59:43.156Z,96946.50
2017-09-07T21:02:10.667Z,96945.95
2017-09-07T21:04:38.188Z,96948.82
2017-09-07T21:07:05.627Z,96951.40
2017-09-07T21:09:33.064Z,96949.70
2017-09-07T21:12:00.793Z,96947.28
2017-09-07T21:14:28.247Z,96947.80
2017-09-07T21:16:56.180Z,96946.86
2017-09-07T21:19:23.636Z,96942.75
2017-09-07T21:21:51.084Z,96946.95
2017-09-07T21:24:18.544Z,96940.00
2017-09-07T21:26:46.003Z,96946.95
2017-09-07T21:29:13.742Z,96942.13
2017-09-07T21:31:41.189Z,96937.20
2017-09-07T21:34:08.632Z,96935.95
2017-09-07T21:36:36.069Z,96930.47
2017-09-07T21:39:03.535Z,96916.99
2017-09-07T21:41:31.059Z,96920.03
2017-09-07T21:43:58.499Z,96913.30
2017-09-07T21:46:25.940Z,96916.70
2017-09-07T21:48:53.397Z,96911.73
2017-09-07T21:51:20.843Z,96919.53
2017-09-07T21:53:48.332Z,96915.98
2017-09-07T21:56:15.796Z,96917.88
2017-09-07T21:58:43.250Z,96913.33
2017-09-07T22:01:10.796Z,96898.91
2017-09-07T22:03:38.260Z,96905.38
2017-09-07T22:06:05.711Z,96894.92
2017-09-07T22:08:33.153Z,96898.61
2017-09-07T22:11:00.636Z,96891.47
2017-09-07T22:13:28.058Z,96893.36
2017-09-07T22:15:55.623Z,96893.36
2017-09-07T22:18:23.204Z,96883.77
2017-09-07T22:20:50.676Z,96886.73
2017-09-07T22:23:18.097Z,96885.82
2017-09-07T22:25:45.638Z,96884.52
2017-09-07T22:28:13.082Z,96884.45
2017-09-07T22:30:40.531Z,96881.48
2017-09-07T22:33:07.994Z,96888.33
2017-09-07T22:35:35.441Z,96882.42
2017-09-07T22:38:02.889Z,96883.80
2017-09-07T22:40:31.163Z,96884.73
2017-09-07T22:42:58.600Z,96892.15
2017-09-07T22:45:26.042Z,96887.19
2017-09-07T22:47:53.468Z,96885.39
2017-09-07T22:50:20.919Z,96887.84
2017-09-07T22:52:48.386Z,96886.89
2017-09-07T22:55:15.844Z,96885.95
2017-09-07T22:57:43.276Z,96888.39
2017-09-07T23:00:10.709Z,96873.84
2017-09-07T23:02:38.182Z,96872.47
2017-09-07T23:05:05.624Z,96866.56
2017-09-07T23:07:33.201Z,96871.52
2017-09-07T23:10:00.636Z,96872.05
2017-09-07T23:12:28.082Z,96862.71
2017-09-07T23:14:55.523Z,96859.97
2017-09-07T23:17:22.985Z,96859.68
2017-09-07T23:19:50.550Z,96851.98
2017-09-07T23:22:17.981Z,96861.44
2017-09-07T23:24:45.429Z,96859.77
2017-09-07T23:27:12.864Z,96867.34
2017-09-07T23:29:40.292Z,96867.48
2017-09-07T23:32:07.841Z,96859.25
2017-09-07T23:34:35.280Z,96853.05
2017-09-07T23:37:02.728Z,96848.09
2017-09-07T23:39:30.185Z,96846.72
2017-09-07T23:41:57.615Z,96847.67
2017-09-07T23:44:25.057Z,96849.89
2017-09-07T23:46:52.508Z,96847.15
2017-09-07T23:49:19.931Z,96848.52
2017-09-07T23:51:47.368Z,96844.93
2017-09-07T23:54:14.819Z,96842.74
2017-09-07T23:56:42.248Z,96843.69
2017-09-07T23:59:09.684Z,96840.78
